Time;durP1;ratioP1;P1;durP2;ratioP2;P2;SDS_P1;SDS_P2;PMS_P1;PMS_P2;Temp;Humidity;BMP_temperature;BMP_pressure;BME280_temperature;BME280_humidity;BME280_pressure;Samples;Min_cycle;Max_cycle;Signal;HPM_P1;HPM_P2
2021/08/30 00:00:33;;;;;;;8.60;5.05;;;14.30;99.90;;;;;;5092948;28;20024;-74
2021/08/30 00:02:59;;;;;;;5.90;4.68;;;14.30;99.90;;;;;;5081174;28;20483;-74
2021/08/30 00:05:24;;;;;;;9.27;5.90;;;14.20;99.90;;;;;;5078761;28;20028;-74
2021/08/30 00:07:50;;;;;;;7.90;6.15;;;14.10;99.90;;;;;;5084198;28;20534;-74
2021/08/30 00:10:15;;;;;;;6.22;5.30;;;14.00;99.90;;;;;;5074615;28;20479;-73
2021/08/30 00:12:42;;;;;;;10.27;7.20;;;14.00;99.90;;;;;;5071166;28;20026;-73
2021/08/30 00:15:10;;;;;;;12.10;6.80;;;14.00;99.90;;;;;;5076533;28;20015;-74
2021/08/30 00:17:35;;;;;;;7.80;6.32;;;14.00;99.90;;;;;;5080209;28;20090;-74
2021/08/30 00:20:01;;;;;;;10.07;6.30;;;13.90;99.90;;;;;;5076968;28;20474;-74
2021/08/30 00:22:26;;;;;;;8.82;5.50;;;13.90;99.90;;;;;;5085488;28;20115;-73
2021/08/30 00:24:52;;;;;;;8.73;5.82;;;13.90;99.90;;;;;;5087267;28;20028;-74
2021/08/30 00:27:17;;;;;;;8.55;5.80;;;14.00;99.90;;;;;;5079507;28;20111;-75
2021/08/30 00:29:43;;;;;;;11.18;7.05;;;14.00;99.90;;;;;;5084057;28;20489;-74
2021/08/30 00:32:08;;;;;;;13.05;7.47;;;14.00;99.90;;;;;;5086466;28;20518;-75
2021/08/30 00:34:34;;;;;;;11.38;7.68;;;14.00;99.90;;;;;;5078737;28;20047;-75
2021/08/30 00:36:59;;;;;;;14.25;7.93;;;14.00;99.90;;;;;;5087730;28;20390;-74
2021/08/30 00:39:25;;;;;;;7.72;5.68;;;14.10;99.90;;;;;;5084708;28;20031;-74
2021/08/30 00:41:56;;;;;;;10.32;6.22;;;14.10;99.90;;;;;;5089912;28;20036;-76
2021/08/30 00:44:23;;;;;;;18.30;8.10;;;14.00;99.90;;;;;;5078599;28;20024;-75
2021/08/30 00:46:48;;;;;;;62.78;10.27;;;13.90;99.90;;;;;;5079287;28;20386;-76
2021/08/30 00:49:14;;;;;;;56.05;8.10;;;13.80;99.90;;;;;;5078248;28;20020;-75
2021/08/30 00:51:39;;;;;;;36.70;9.00;;;13.80;99.90;;;;;;5079900;28;20028;-75
2021/08/30 00:54:05;;;;;;;14.40;6.75;;;13.80;99.90;;;;;;5084752;28;20039;-76
2021/08/30 00:56:31;;;;;;;8.13;5.00;;;13.80;99.90;;;;;;5085251;28;20078;-76
2021/08/30 00:58:56;;;;;;;4.95;4.45;;;13.90;99.90;;;;;;5084693;28;20074;-76
2021/08/30 01:01:22;;;;;;;6.85;5.32;;;14.00;99.90;;;;;;5084026;28;20131;-75
2021/08/30 01:03:48;;;;;;;11.23;6.63;;;14.10;99.90;;;;;;5077301;28;20084;-75
2021/08/30 01:06:30;;;;;;;10.82;5.88;;;14.00;99.90;;;;;;5078929;28;20031;-75
2021/08/30 01:09:16;;;;;;;5.72;4.53;;;13.90;99.90;;;;;;5070721;28;20048;-75
2021/08/30 01:11:50;;;;;;;5.22;4.50;;;13.90;99.90;;;;;;5088451;28;20401;-75
2021/08/30 01:14:18;;;;;;;6.05;4.60;;;14.00;99.90;;;;;;5091838;28;20020;-75
2021/08/30 01:16:45;;;;;;;5.47;4.57;;;14.10;99.90;;;;;;5085456;28;20025;-75
2021/08/30 01:19:19;;;;;;;5.93;4.57;;;14.10;99.90;;;;;;5084139;28;20224;-75
2021/08/30 01:21:46;;;;;;;5.95;4.63;;;14.20;99.90;;;;;;5092226;28;20490;-75
2021/08/30 01:24:19;;;;;;;5.32;4.57;;;14.20;99.90;;;;;;5077177;28;20032;-74
2021/08/30 01:26:54;;;;;;;5.82;4.55;;;14.20;99.90;;;;;;5084227;28;20090;-75
2021/08/30 01:29:34;;;;;;;4.35;3.80;;;14.20;99.90;;;;;;5084362;28;20024;-75
2021/08/30 01:32:37;;;;;;;4.35;3.95;;;14.30;99.90;;;;;;5087107;28;20020;-75
2021/08/30 01:35:24;;;;;;;5.40;4.10;;;14.20;99.90;;;;;;5083893;28;20027;-75
2021/08/30 01:37:54;;;;;;;7.25;3.72;;;14.20;99.90;;;;;;5095333;28;20082;-76
2021/08/30 01:40:22;;;;;;;4.60;4.07;;;14.20;99.90;;;;;;5082950;28;20060;-75
2021/08/30 01:42:51;;;;;;;5.85;3.20;;;14.20;99.90;;;;;;5089187;28;20035;-76
2021/08/30 01:45:21;;;;;;;4.47;3.33;;;14.30;99.90;;;;;;5087587;28;20047;-75
2021/08/30 01:47:49;;;;;;;4.57;3.50;;;14.20;99.90;;;;;;5081139;28;20347;-74
2021/08/30 01:50:18;;;;;;;3.72;3.30;;;14.30;99.90;;;;;;5081982;28;20024;-75
2021/08/30 01:52:44;;;;;;;3.35;3.03;;;14.20;99.90;;;;;;5088307;28;20487;-75
2021/08/30 01:55:29;;;;;;;5.93;3.70;;;14.20;99.90;;;;;;5087959;28;20079;-75
2021/08/30 02:00:45;;;;;;;4.50;3.30;;;14.10;99.90;;;;;;5090744;28;20027;-74
2021/08/30 02:03:18;;;;;;;6.30;4.53;;;14.00;99.90;;;;;;5089038;28;20032;-75
2021/08/30 02:05:47;;;;;;;4.90;3.67;;;14.00;99.90;;;;;;5082627;28;20019;-75
2021/08/30 02:08:16;;;;;;;4.80;4.00;;;14.00;99.90;;;;;;5094027;28;20028;-76
2021/08/30 02:10:43;;;;;;;7.70;4.97;;;14.00;99.90;;;;;;5083592;28;20074;-75
2021/08/30 02:13:09;;;;;;;6.15;4.15;;;14.00;99.90;;;;;;5095239;28;20027;-76
2021/08/30 02:15:34;;;;;;;7.43;4.82;;;14.00;99.90;;;;;;5095183;28;20028;-74
2021/08/30 02:18:06;;;;;;;7.95;4.32;;;14.00;99.90;;;;;;5092907;28;20035;-74
2021/08/30 02:20:33;;;;;;;4.53;4.03;;;14.00;99.90;;;;;;5083627;28;20628;-75
2021/08/30 02:23:03;;;;;;;5.60;3.42;;;13.90;99.90;;;;;;5080083;28;20027;-75
2021/08/30 02:25:29;;;;;;;4.45;3.88;;;13.90;99.90;;;;;;5082884;28;20382;-75
2021/08/30 02:27:58;;;;;;;4.90;4.40;;;13.80;99.90;;;;;;5087097;28;20107;-75
2021/08/30 02:30:29;;;;;;;5.00;4.38;;;13.80;99.90;;;;;;5084551;28;20127;-75
2021/08/30 02:33:00;;;;;;;3.88;3.47;;;13.90;99.90;;;;;;5081383;28;20020;-74
2021/08/30 02:35:29;;;;;;;5.18;4.60;;;13.80;99.90;;;;;;5094752;28;20020;-75
2021/08/30 02:37:55;;;;;;;5.63;5.07;;;13.90;99.90;;;;;;5081095;28;20020;-74
2021/08/30 02:40:24;;;;;;;6.05;5.30;;;13.80;99.90;;;;;;5080602;28;20514;-74
2021/08/30 02:42:51;;;;;;;8.45;5.75;;;13.80;99.90;;;;;;5088768;28;20074;-75
2021/08/30 02:45:18;;;;;;;9.02;6.88;;;13.70;99.90;;;;;;5090151;28;20024;-75
2021/08/30 02:47:45;;;;;;;11.10;7.43;;;13.70;99.90;;;;;;5096325;28;20038;-75
2021/08/30 02:50:12;;;;;;;8.00;7.03;;;13.70;99.90;;;;;;5094568;28;20135;-76
2021/08/30 02:52:38;;;;;;;12.77;8.90;;;13.70;99.90;;;;;;5076202;28;20073;-76
2021/08/30 02:55:05;;;;;;;10.70;7.82;;;13.70;99.90;;;;;;5093230;28;20024;-75
2021/08/30 02:57:33;;;;;;;12.07;8.23;;;13.70;99.90;;;;;;5093311;28;20629;-76
2021/08/30 03:00:00;;;;;;;10.27;8.18;;;13.70;99.90;;;;;;5094116;28;20470;-75
2021/08/30 03:02:26;;;;;;;11.52;8.57;;;13.70;99.90;;;;;;5075200;28;20064;-74
2021/08/30 03:04:58;;;;;;;11.55;8.60;;;13.70;99.90;;;;;;5077449;28;20032;-74
2021/08/30 03:07:28;;;;;;;9.23;8.15;;;13.80;99.90;;;;;;5086980;28;20568;-74
2021/08/30 03:09:55;;;;;;;13.30;8.38;;;13.80;99.90;;;;;;5097558;28;20024;-75
2021/08/30 03:12:21;;;;;;;11.45;8.10;;;13.80;99.90;;;;;;5095355;28;20136;-74
2021/08/30 03:14:48;;;;;;;11.43;7.95;;;13.80;99.90;;;;;;5079208;28;20024;-75
2021/08/30 03:17:15;;;;;;;9.98;7.35;;;13.80;99.90;;;;;;5084409;28;20103;-75
2021/08/30 03:19:44;;;;;;;10.75;7.70;;;13.70;99.90;;;;;;5091862;28;20383;-75
2021/08/30 03:22:13;;;;;;;12.82;9.10;;;13.70;99.90;;;;;;5083500;28;20110;-75
2021/08/30 03:24:41;;;;;;;10.60;7.55;;;13.70;99.90;;;;;;5090369;28;20506;-76
2021/08/30 03:27:09;;;;;;;9.98;8.38;;;13.80;99.90;;;;;;5084446;28;20077;-75
2021/08/30 03:29:37;;;;;;;9.10;6.97;;;13.90;99.90;;;;;;5093752;28;20032;-74
2021/08/30 03:32:05;;;;;;;12.57;8.85;;;13.90;99.90;;;;;;5081086;28;20021;-76
2021/08/30 03:34:32;;;;;;;11.00;8.57;;;13.80;99.90;;;;;;5093493;28;20020;-75
2021/08/30 03:36:58;;;;;;;11.00;8.00;;;14.20;99.90;;;;;;5097466;28;20020;-76
2021/08/30 03:39:24;;;;;;;14.30;8.68;;;13.90;99.90;;;;;;5092713;28;20084;-76
2021/08/30 03:41:50;;;;;;;9.98;8.05;;;13.90;99.90;;;;;;5091952;28;20024;-75
2021/08/30 03:44:19;;;;;;;13.07;8.55;;;13.90;99.90;;;;;;5092427;28;20024;-76
2021/08/30 03:46:45;;;;;;;11.98;7.90;;;13.90;99.90;;;;;;5091162;28;20028;-76
2021/08/30 03:49:11;;;;;;;9.93;7.63;;;13.90;99.90;;;;;;5096545;28;20069;-75
2021/08/30 03:51:39;;;;;;;10.95;7.78;;;13.80;99.90;;;;;;5073894;28;20028;-76
2021/08/30 03:54:05;;;;;;;11.02;7.80;;;13.80;99.90;;;;;;5091586;28;20039;-76
2021/08/30 03:56:31;;;;;;;7.57;6.63;;;13.80;99.90;;;;;;5085286;28;20119;-75
2021/08/30 03:58:58;;;;;;;9.48;7.43;;;13.80;99.90;;;;;;5093539;28;20063;-77
2021/08/30 04:01:25;;;;;;;9.55;6.30;;;13.80;99.90;;;;;;5083533;28;20035;-76
2021/08/30 04:03:54;;;;;;;8.73;7.05;;;13.80;99.90;;;;;;5090799;28;20029;-76
2021/08/30 04:06:22;;;;;;;7.80;6.00;;;13.80;99.90;;;;;;5084781;28;20020;-76
2021/08/30 04:08:49;;;;;;;6.25;5.53;;;13.80;99.90;;;;;;5088215;28;20429;-76
2021/08/30 04:11:16;;;;;;;6.10;5.22;;;13.50;99.90;;;;;;5088234;28;20024;-75
2021/08/30 04:13:42;;;;;;;6.47;5.65;;;14.00;99.90;;;;;;5079929;28;20436;-75
2021/08/30 04:16:08;;;;;;;9.15;6.22;;;13.80;99.90;;;;;;5094157;28;20042;-74
2021/08/30 04:18:34;;;;;;;6.05;5.15;;;13.80;99.90;;;;;;5080565;28;20047;-73
2021/08/30 04:20:59;;;;;;;5.50;4.97;;;13.70;99.90;;;;;;5079644;28;20403;-73
2021/08/30 04:23:25;;;;;;;6.32;5.50;;;13.70;99.90;;;;;;5092248;28;20040;-74
2021/08/30 04:25:51;;;;;;;6.35;5.18;;;13.70;99.90;;;;;;5084174;28;20103;-74
2021/08/30 04:28:16;;;;;;;7.05;5.80;;;13.70;99.90;;;;;;5079307;28;20024;-74
2021/08/30 04:30:42;;;;;;;5.68;4.70;;;13.70;99.90;;;;;;5092404;28;20035;-74
2021/08/30 04:33:11;;;;;;;5.90;4.63;;;13.80;99.90;;;;;;5079074;28;20016;-74
2021/08/30 04:35:37;;;;;;;7.97;4.82;;;13.80;99.90;;;;;;5078634;28;20020;-74
2021/08/30 04:38:04;;;;;;;5.18;4.68;;;13.70;99.90;;;;;;5085408;28;20069;-74
2021/08/30 04:40:29;;;;;;;5.30;4.35;;;13.60;99.90;;;;;;5085848;28;20028;-75
2021/08/30 04:42:55;;;;;;;5.90;4.80;;;13.60;99.90;;;;;;5077885;28;20020;-74
2021/08/30 04:45:21;;;;;;;7.03;4.90;;;13.60;99.90;;;;;;5077174;28;20435;-74
2021/08/30 04:47:46;;;;;;;5.00;4.50;;;13.60;99.90;;;;;;5085741;28;20067;-74
2021/08/30 04:50:12;;;;;;;5.80;5.20;;;13.60;99.90;;;;;;5084848;28;20126;-74
2021/08/30 04:52:37;;;;;;;5.07;4.55;;;13.70;99.90;;;;;;5105956;28;20024;-75
2021/08/30 04:55:03;;;;;;;5.28;4.13;;;13.60;99.90;;;;;;5079042;28;20024;-76
2021/08/30 04:57:29;;;;;;;6.72;4.13;;;13.60;99.90;;;;;;5085524;28;20471;-75
2021/08/30 04:59:54;;;;;;;5.35;4.18;;;13.60;99.90;;;;;;5085109;28;20032;-75
2021/08/30 05:02:20;;;;;;;6.18;4.10;;;13.50;99.90;;;;;;5078562;28;20394;-76
2021/08/30 05:04:46;;;;;;;5.93;4.82;;;13.50;99.90;;;;;;5091277;28;20056;-75
2021/08/30 05:07:12;;;;;;;8.07;5.60;;;13.40;99.90;;;;;;5072661;28;20071;-75
2021/08/30 05:09:37;;;;;;;6.72;5.07;;;13.40;99.90;;;;;;5084450;28;20031;-77
2021/08/30 05:12:03;;;;;;;5.85;5.25;;;13.40;99.90;;;;;;5091911;28;20028;-75
2021/08/30 05:14:28;;;;;;;9.23;5.35;;;13.40;99.90;;;;;;5078838;28;20025;-76
2021/08/30 05:16:54;;;;;;;5.95;5.20;;;13.40;99.90;;;;;;5078892;28;20056;-75
2021/08/30 05:19:20;;;;;;;5.93;4.40;;;13.40;99.90;;;;;;5078623;28;20020;-74
2021/08/30 05:21:46;;;;;;;6.60;4.35;;;13.40;99.90;;;;;;5085493;28;20036;-75
2021/08/30 05:24:11;;;;;;;5.53;4.15;;;13.40;99.90;;;;;;5084973;28;20028;-75
2021/08/30 05:26:37;;;;;;;6.30;4.75;;;13.50;99.90;;;;;;5078455;28;20028;-74
2021/08/30 05:29:03;;;;;;;8.90;4.93;;;13.50;99.90;;;;;;5079125;28;20037;-75
2021/08/30 05:31:29;;;;;;;6.07;4.72;;;13.60;99.90;;;;;;5076527;28;20031;-75
2021/08/30 05:33:58;;;;;;;6.70;4.80;;;13.60;99.90;;;;;;5091834;28;20020;-76
2021/08/30 05:36:24;;;;;;;6.32;4.70;;;13.60;99.90;;;;;;5083904;28;20048;-75
2021/08/30 05:38:50;;;;;;;7.65;4.63;;;13.60;99.90;;;;;;5084949;28;20099;-76
2021/08/30 05:41:16;;;;;;;5.88;4.43;;;13.50;99.90;;;;;;5078534;28;20032;-74
2021/08/30 05:43:41;;;;;;;6.60;5.18;;;13.50;99.90;;;;;;5078421;28;20070;-75
2021/08/30 05:46:09;;;;;;;5.90;4.70;;;13.50;99.90;;;;;;5083493;28;20481;-75
2021/08/30 05:48:35;;;;;;;9.20;5.32;;;13.50;99.90;;;;;;5084956;28;20020;-75
2021/08/30 05:51:01;;;;;;;6.50;4.43;;;13.60;99.90;;;;;;5078380;28;20082;-75
2021/08/30 05:53:26;;;;;;;5.85;4.50;;;13.60;99.90;;;;;;5077956;28;20083;-74
2021/08/30 05:55:52;;;;;;;7.47;5.55;;;13.60;99.90;;;;;;5078035;28;20043;-75
2021/08/30 05:58:18;;;;;;;5.68;4.50;;;13.80;99.90;;;;;;5088402;28;20024;-73
2021/08/30 06:00:44;;;;;;;11.60;6.47;;;13.80;99.90;;;;;;5091728;28;20028;-75
2021/08/30 06:03:09;;;;;;;6.43;5.30;;;13.90;99.90;;;;;;5078089;28;20128;-75
2021/08/30 06:05:35;;;;;;;6.43;5.07;;;14.00;99.90;;;;;;5083535;28;20024;-75
2021/08/30 06:08:00;;;;;;;6.55;5.43;;;14.00;99.90;;;;;;5084179;28;20035;-75
2021/08/30 06:10:26;;;;;;;9.55;4.90;;;14.20;99.90;;;;;;5076443;28;20020;-74
2021/08/30 06:12:51;;;;;;;4.93;4.30;;;14.20;99.90;;;;;;5078737;28;20414;-76
2021/08/30 06:15:17;;;;;;;4.15;3.70;;;14.30;99.90;;;;;;5070984;28;20136;-75
2021/08/30 06:17:43;;;;;;;4.00;3.60;;;14.40;99.90;;;;;;5088315;28;20016;-76
2021/08/30 06:20:09;;;;;;;7.15;3.42;;;14.40;99.90;;;;;;5093967;28;20021;-75
2021/08/30 06:22:34;;;;;;;3.95;2.95;;;14.70;99.90;;;;;;5095818;28;20032;-77
2021/08/30 06:25:00;;;;;;;2.60;2.25;;;14.90;99.90;;;;;;5081860;28;20039;-75
2021/08/30 06:27:25;;;;;;;2.70;2.22;;;14.80;99.90;;;;;;5080730;28;20395;-76
2021/08/30 06:29:51;;;;;;;2.97;2.20;;;14.80;99.90;;;;;;5087187;28;20483;-76
2021/08/30 06:32:16;;;;;;;2.22;2.03;;;14.90;99.90;;;;;;5087514;28;20055;-75
2021/08/30 06:34:42;;;;;;;2.60;2.03;;;14.70;99.90;;;;;;5088642;28;20024;-75
2021/08/30 06:37:08;;;;;;;2.83;1.90;;;14.70;99.90;;;;;;5087374;28;20477;-77
2021/08/30 06:39:34;;;;;;;2.22;2.03;;;14.70;99.90;;;;;;5081238;28;20016;-75
2021/08/30 06:41:59;;;;;;;2.42;1.75;;;14.70;99.90;;;;;;5082738;28;20548;-73
2021/08/30 06:44:25;;;;;;;2.08;1.88;;;14.80;99.90;;;;;;5088001;28;20436;-75
2021/08/30 06:46:50;;;;;;;1.95;1.70;;;15.00;99.90;;;;;;5092988;28;20107;-75
2021/08/30 06:49:16;;;;;;;3.00;1.83;;;15.20;99.90;;;;;;5090651;28;20383;-75
2021/08/30 06:51:41;;;;;;;2.60;2.10;;;15.00;99.90;;;;;;5074676;28;20094;-73
2021/08/30 06:54:07;;;;;;;2.22;2.03;;;14.90;99.90;;;;;;5092797;28;20032;-73
2021/08/30 06:56:32;;;;;;;2.03;1.83;;;14.70;99.90;;;;;;5094317;28;20032;-74
2021/08/30 06:58:58;;;;;;;3.05;1.90;;;14.60;99.90;;;;;;5094379;28;20078;-74
2021/08/30 07:01:24;;;;;;;4.13;2.30;;;14.80;99.90;;;;;;5094361;28;20127;-72
2021/08/30 07:03:49;;;;;;;2.58;2.30;;;14.90;99.90;;;;;;5092925;28;20413;-72
2021/08/30 07:06:15;;;;;;;4.95;2.60;;;15.00;99.90;;;;;;5092732;28;20111;-72
2021/08/30 07:08:40;;;;;;;2.78;2.30;;;14.90;99.90;;;;;;5089232;28;20059;-74
2021/08/30 07:11:06;;;;;;;3.33;2.72;;;15.10;99.90;;;;;;5085670;28;20051;-74
2021/08/30 07:13:32;;;;;;;4.28;2.60;;;15.20;99.90;;;;;;5075461;28;20025;-74
2021/08/30 07:15:57;;;;;;;3.63;2.83;;;15.50;99.90;;;;;;5085974;28;20024;-74
2021/08/30 07:18:23;;;;;;;3.50;2.95;;;15.60;99.90;;;;;;5080618;28;20020;-74
2021/08/30 07:20:48;;;;;;;5.07;3.15;;;15.90;99.90;;;;;;5082296;28;20059;-74
2021/08/30 07:23:15;;;;;;;3.42;3.13;;;15.90;99.90;;;;;;5088057;28;20077;-74
2021/08/30 07:25:41;;;;;;;4.47;3.72;;;16.00;99.90;;;;;;5073446;28;20029;-74
2021/08/30 07:28:06;;;;;;;3.42;3.13;;;16.10;99.90;;;;;;5078011;28;20076;-74
2021/08/30 07:30:32;;;;;;;3.60;2.67;;;16.00;99.90;;;;;;5081683;28;20028;-74
2021/08/30 07:33:01;;;;;;;4.43;3.03;;;16.00;99.90;;;;;;5073728;28;20116;-74
2021/08/30 07:35:27;;;;;;;2.75;2.55;;;16.30;99.90;;;;;;5086829;28;20043;-74
2021/08/30 07:37:53;;;;;;;2.67;2.20;;;16.20;99.90;;;;;;5098405;28;20012;-74
2021/08/30 07:40:19;;;;;;;2.50;2.30;;;16.00;99.90;;;;;;5101934;28;20422;-74
2021/08/30 07:42:44;;;;;;;2.63;2.33;;;15.90;99.90;;;;;;5086586;28;20024;-74
2021/08/30 07:45:10;;;;;;;4.55;2.72;;;16.00;99.90;;;;;;5089959;28;20035;-74
2021/08/30 07:47:36;;;;;;;2.63;2.42;;;15.80;99.90;;;;;;5099677;28;20024;-74
2021/08/30 07:50:02;;;;;;;4.03;2.80;;;15.60;99.90;;;;;;5100739;28;20076;-74
2021/08/30 07:52:28;;;;;;;2.95;2.67;;;15.60;99.90;;;;;;5080288;28;20036;-74
2021/08/30 07:54:53;;;;;;;5.15;3.58;;;15.70;99.90;;;;;;5093111;28;20021;-74
2021/08/30 07:57:19;;;;;;;5.50;3.80;;;15.60;99.90;;;;;;5088265;28;20035;-74
2021/08/30 07:59:44;;;;;;;5.43;4.68;;;15.50;99.90;;;;;;5073012;28;20024;-74
2021/08/30 08:02:10;;;;;;;4.30;3.80;;;15.60;99.90;;;;;;5072988;28;20031;-74
2021/08/30 08:04:35;;;;;;;6.07;4.35;;;15.60;99.90;;;;;;5072509;28;20384;-73
2021/08/30 08:07:01;;;;;;;5.32;4.50;;;15.70;99.90;;;;;;5077095;28;20462;-73
2021/08/30 08:09:26;;;;;;;4.30;3.83;;;15.50;99.90;;;;;;5081987;28;20103;-74
2021/08/30 08:11:52;;;;;;;4.93;4.00;;;15.60;99.90;;;;;;5072595;28;20032;-74
2021/08/30 08:14:17;;;;;;;5.32;4.25;;;15.60;99.90;;;;;;5072531;28;20029;-74
2021/08/30 08:16:43;;;;;;;5.10;4.43;;;15.60;99.90;;;;;;5091277;28;20024;-74
2021/08/30 08:19:09;;;;;;;5.43;4.20;;;15.50;99.90;;;;;;5092982;28;20024;-74
2021/08/30 08:21:35;;;;;;;4.72;4.18;;;15.50;99.90;;;;;;5087254;28;20099;-74
2021/08/30 08:24:02;;;;;;;5.70;4.00;;;15.50;99.90;;;;;;5098934;28;20051;-74
2021/08/30 08:26:27;;;;;;;4.50;4.10;;;15.70;99.90;;;;;;5090812;28;20024;-74
2021/08/30 08:28:54;;;;;;;5.40;3.92;;;15.90;99.90;;;;;;5092700;28;20080;-73
2021/08/30 08:31:20;;;;;;;4.63;4.13;;;16.00;99.90;;;;;;5074113;28;20028;-74
2021/08/30 08:33:46;;;;;;;4.40;4.00;;;15.90;99.90;;;;;;5084216;28;20020;-74
2021/08/30 08:36:11;;;;;;;4.43;4.03;;;16.00;99.90;;;;;;5098825;28;20059;-74
2021/08/30 08:38:37;;;;;;;4.63;4.22;;;15.90;99.90;;;;;;5072281;28;20028;-73
2021/08/30 08:41:02;;;;;;;4.47;4.07;;;16.00;99.90;;;;;;5070884;28;20029;-74
2021/08/30 08:43:29;;;;;;;4.78;4.00;;;16.30;99.90;;;;;;5097145;28;20470;-74
2021/08/30 08:45:55;;;;;;;4.32;3.75;;;16.30;99.90;;;;;;5102352;28;20032;-73
2021/08/30 08:48:21;;;;;;;5.32;3.90;;;16.30;99.90;;;;;;5078914;28;20111;-74
2021/08/30 08:50:47;;;;;;;4.30;3.60;;;16.20;99.90;;;;;;5093814;28;20479;-74
2021/08/30 08:53:13;;;;;;;5.10;3.83;;;16.20;99.90;;;;;;5089805;28;20038;-74
2021/08/30 08:55:38;;;;;;;4.75;3.88;;;16.30;99.90;;;;;;5104349;28;20023;-74
2021/08/30 08:58:14;;;;;;;4.97;3.70;;;16.30;99.90;;;;;;5095667;28;20471;-74
2021/08/30 09:00:43;;;;;;;4.30;3.85;;;16.50;99.90;;;;;;5072197;28;20033;-74
2021/08/30 09:03:19;;;;;;;3.95;3.58;;;16.70;99.90;;;;;;5085184;28;20036;-74
2021/08/30 09:05:45;;;;;;;4.30;3.90;;;16.50;99.90;;;;;;5082763;28;20032;-74
2021/08/30 09:08:43;;;;;;;4.70;4.00;;;16.50;99.90;;;;;;5071778;28;20048;-74
2021/08/30 09:11:22;;;;;;;3.60;3.30;;;16.60;99.90;;;;;;5042598;28;20052;-74
2021/08/30 09:13:50;;;;;;;7.60;3.50;;;16.60;99.90;;;;;;5084717;28;20024;-74
2021/08/30 09:16:23;;;;;;;4.15;3.72;;;16.60;99.90;;;;;;5099995;28;20458;-74
2021/08/30 09:18:49;;;;;;;4.22;3.38;;;16.70;99.90;;;;;;5090830;28;20074;-73
2021/08/30 09:21:16;;;;;;;3.83;3.53;;;17.00;99.90;;;;;;5090414;28;20489;-73
2021/08/30 09:23:44;;;;;;;4.25;3.70;;;17.30;99.90;;;;;;5093046;28;20110;-73
2021/08/30 09:26:17;;;;;;;4.88;4.38;;;17.60;99.90;;;;;;5089272;28;20024;-73
2021/08/30 09:28:54;;;;;;;5.25;4.03;;;17.60;99.90;;;;;;5092232;28;20048;-73
2021/08/30 09:31:20;;;;;;;4.70;4.30;;;17.80;99.90;;;;;;5071603;28;20376;-73
2021/08/30 09:33:50;;;;;;;4.30;3.90;;;17.50;99.90;;;;;;5071551;28;20025;-73
2021/08/30 09:36:17;;;;;;;4.47;3.85;;;17.60;99.90;;;;;;5070233;28;20021;-73
2021/08/30 09:38:43;;;;;;;4.50;3.40;;;18.00;99.90;;;;;;5083460;28;20021;-74
2021/08/30 09:41:11;;;;;;;3.92;3.53;;;17.80;99.90;;;;;;5080579;28;20371;-73
2021/08/30 09:43:37;;;;;;;4.43;3.70;;;17.40;99.90;;;;;;5071492;28;20056;-73
2021/08/30 09:46:05;;;;;;;4.40;3.63;;;17.00;99.90;;;;;;5071275;28;20052;-73
2021/08/30 09:48:33;;;;;;;3.53;3.17;;;17.20;99.90;;;;;;5070248;28;20056;-74
2021/08/30 09:51:01;;;;;;;3.85;3.45;;;17.10;99.90;;;;;;5072556;28;20593;-73
2021/08/30 09:53:28;;;;;;;2.95;2.65;;;17.10;99.90;;;;;;5075145;28;20079;-73
2021/08/30 09:55:55;;;;;;;4.25;3.03;;;17.30;99.90;;;;;;5075138;28;20021;-74
2021/08/30 09:58:24;;;;;;;2.80;2.60;;;17.60;99.90;;;;;;5079672;28;20017;-73
2021/08/30 10:00:52;;;;;;;4.95;2.92;;;18.00;99.90;;;;;;5087882;28;20024;-74
2021/08/30 10:03:18;;;;;;;4.00;3.28;;;18.10;99.90;;;;;;5099004;28;20024;-74
2021/08/30 10:05:45;;;;;;;2.95;2.50;;;18.50;99.90;;;;;;5092234;28;20455;-74
2021/08/30 10:08:10;;;;;;;3.20;2.90;;;19.10;99.90;;;;;;5081781;28;20027;-74
2021/08/30 10:10:36;;;;;;;3.35;2.97;;;19.10;99.90;;;;;;5094010;28;20106;-74
2021/08/30 10:13:02;;;;;;;2.60;2.40;;;19.40;99.90;;;;;;5079551;28;20042;-74
2021/08/30 10:15:28;;;;;;;3.22;2.92;;;19.30;99.90;;;;;;5082956;28;20093;-74
2021/08/30 10:17:55;;;;;;;2.53;2.33;;;19.30;99.90;;;;;;5080084;28;20048;-73
2021/08/30 10:20:28;;;;;;;4.43;2.90;;;19.10;99.90;;;;;;5082051;28;20462;-73
2021/08/30 10:23:01;;;;;;;3.58;3.28;;;18.90;99.90;;;;;;5092614;28;20389;-73
2021/08/30 10:25:27;;;;;;;4.03;3.63;;;18.70;99.90;;;;;;5077506;28;20032;-74
2021/08/30 10:28:02;;;;;;;4.68;4.22;;;18.40;99.90;;;;;;5093119;28;20051;-74
2021/08/30 10:30:30;;;;;;;4.50;4.10;;;18.30;99.90;;;;;;5114645;28;20019;-73
2021/08/30 10:32:59;;;;;;;5.25;4.45;;;18.00;99.90;;;;;;5077784;28;20028;-73
2021/08/30 10:35:30;;;;;;;4.47;4.07;;;17.70;99.90;;;;;;5074435;28;20063;-74
2021/08/30 10:38:08;;;;;;;4.70;4.30;;;17.70;99.90;;;;;;5074700;28;20398;-73
2021/08/30 10:40:36;;;;;;;5.53;4.57;;;17.90;99.90;;;;;;5088223;28;20016;-74
2021/08/30 10:43:14;;;;;;;4.80;4.40;;;18.00;99.90;;;;;;5076778;28;20021;-74
2021/08/30 10:45:43;;;;;;;5.00;4.10;;;18.10;99.90;;;;;;5077275;28;20043;-73
2021/08/30 10:48:13;;;;;;;5.00;4.50;;;18.10;99.90;;;;;;5106694;28;20028;-73
2021/08/30 10:50:50;;;;;;;4.50;4.10;;;17.80;99.90;;;;;;5102828;28;20077;-73
2021/08/30 10:53:22;;;;;;;4.45;4.05;;;17.90;99.90;;;;;;5104633;28;20084;-73
2021/08/30 10:55:53;;;;;;;4.28;3.88;;;18.00;99.90;;;;;;5080504;28;20028;-73
2021/08/30 10:58:23;;;;;;;4.72;3.88;;;18.10;99.90;;;;;;5094320;28;20028;-74
2021/08/30 11:00:51;;;;;;;5.63;3.67;;;17.90;99.90;;;;;;5094389;28;20032;-73
2021/08/30 11:03:34;;;;;;;5.10;3.60;;;18.20;99.90;;;;;;5093093;28;20024;-73
2021/08/30 11:06:12;;;;;;;4.55;3.65;;;18.30;99.90;;;;;;5094173;28;20054;-74
2021/08/30 11:08:41;;;;;;;4.28;3.85;;;18.20;99.90;;;;;;5088879;28;20458;-74
2021/08/30 11:11:20;;;;;;;3.92;3.63;;;18.20;99.90;;;;;;5100549;28;20039;-73
2021/08/30 11:14:03;;;;;;;3.70;3.40;;;18.50;99.90;;;;;;5073874;28;20035;-74
2021/08/30 11:16:30;;;;;;;4.28;3.88;;;18.70;99.90;;;;;;5090291;28;20028;-73
2021/08/30 11:19:00;;;;;;;3.90;3.50;;;18.90;99.90;;;;;;5094073;28;20055;-73
2021/08/30 11:21:36;;;;;;;3.38;3.08;;;18.70;99.90;;;;;;5087592;28;20466;-74
2021/08/30 11:24:04;;;;;;;4.10;3.45;;;18.70;99.90;;;;;;5073611;28;20486;-74
2021/08/30 11:26:29;;;;;;;3.80;3.50;;;19.00;99.90;;;;;;5073310;28;20021;-74
2021/08/30 11:29:02;;;;;;;5.63;3.40;;;19.10;99.90;;;;;;5073637;28;20033;-74
2021/08/30 11:31:33;;;;;;;3.60;3.30;;;19.10;99.90;;;;;;5093407;28;20078;-74
2021/08/30 11:33:59;;;;;;;3.38;3.08;;;18.50;99.90;;;;;;5082314;28;20206;-74
2021/08/30 11:36:25;;;;;;;3.78;3.47;;;18.60;99.90;;;;;;5101897;28;20485;-74
2021/08/30 11:38:56;;;;;;;3.40;3.10;;;18.80;99.90;;;;;;5104588;28;20024;-74
2021/08/30 11:41:22;;;;;;;4.22;3.38;;;19.00;99.90;;;;;;5100801;28;20053;-74
2021/08/30 11:43:49;;;;;;;3.40;3.10;;;18.90;99.90;;;;;;5087781;28;20031;-74
2021/08/30 11:46:15;;;;;;;3.70;3.33;;;19.20;99.90;;;;;;5103132;28;20024;-74
2021/08/30 11:48:41;;;;;;;4.15;3.70;;;19.10;99.90;;;;;;5084458;28;20146;-74
2021/08/30 11:51:07;;;;;;;4.05;3.65;;;19.00;99.90;;;;;;5073240;28;20024;-74
2021/08/30 11:53:32;;;;;;;3.60;3.30;;;19.10;99.90;;;;;;5093493;28;20107;-74
2021/08/30 11:55:58;;;;;;;3.63;3.28;;;18.90;99.90;;;;;;5093749;28;20032;-74
2021/08/30 11:58:33;;;;;;;3.60;3.30;;;19.10;99.90;;;;;;5072392;28;20020;-74
2021/08/30 12:01:04;;;;;;;3.30;3.00;;;19.00;99.90;;;;;;5084187;28;20387;-74
2021/08/30 12:03:41;;;;;;;4.07;3.67;;;19.80;99.90;;;;;;5086635;28;20103;-74
2021/08/30 12:06:19;;;;;;;4.00;3.70;;;20.50;99.90;;;;;;5072707;28;20016;-74
2021/08/30 12:08:55;;;;;;;3.70;3.40;;;20.90;99.90;;;;;;5072852;28;20021;-74
2021/08/30 12:11:20;;;;;;;;;;;20.70;99.90;;;;;;5073147;28;20517;-74
2021/08/30 12:16:27;;;;;;;3.53;3.15;;;20.10;99.90;;;;;;5086281;28;20048;-74
2021/08/30 12:18:54;;;;;;;3.22;2.92;;;21.00;99.90;;;;;;5072804;28;20021;-74
2021/08/30 12:21:37;;;;;;;3.53;2.95;;;21.60;99.90;;;;;;5078148;28;20098;-74
2021/08/30 12:24:07;;;;;;;3.55;3.00;;;21.70;99.90;;;;;;5096106;28;20024;-74
2021/08/30 12:26:35;;;;;;;3.85;3.55;;;21.50;99.90;;;;;;5088833;28;20127;-75
2021/08/30 12:29:01;;;;;;;5.03;3.40;;;21.80;99.90;;;;;;5098022;28;20108;-74
2021/08/30 12:31:30;;;;;;;3.38;2.78;;;21.30;99.90;;;;;;5099175;28;20056;-74
2021/08/30 12:34:02;;;;;;;3.38;3.08;;;21.00;99.90;;;;;;5072238;28;20012;-74
2021/08/30 12:36:27;;;;;;;3.40;3.10;;;21.20;99.90;;;;;;5072094;28;20094;-74
2021/08/30 12:38:53;;;;;;;3.40;3.10;;;20.50;99.90;;;;;;5078443;28;20478;-73
2021/08/30 12:41:19;;;;;;;3.45;3.15;;;20.20;99.90;;;;;;5100769;28;20028;-74
2021/08/30 12:43:48;;;;;;;3.88;3.47;;;20.90;99.90;;;;;;5078116;28;20530;-74
2021/08/30 12:46:14;;;;;;;3.63;3.33;;;22.00;99.90;;;;;;5071950;28;20028;-75
2021/08/30 12:48:40;;;;;;;6.85;3.72;;;22.10;99.90;;;;;;5072041;28;20408;-75
2021/08/30 12:51:06;;;;;;;5.80;3.50;;;23.30;99.90;;;;;;5072465;28;20033;-75
2021/08/30 12:53:32;;;;;;;4.88;3.50;;;22.40;99.90;;;;;;5084669;28;20035;-74